sensor_id;sensor_type;location;lat;lon;timestamp;temperature;humidity
79016;DHT22;72726;44.842;37.556;2024-02-26T00:00:27;4.70;65.41
79016;DHT22;72726;44.842;37.556;2024-02-26T00:01:31;4.71;65.35
79016;DHT22;72726;44.842;37.556;2024-02-26T00:02:33;4.70;65.53
79016;DHT22;72726;44.842;37.556;2024-02-26T00:03:38;4.71;65.42
79016;DHT22;72726;44.842;37.556;2024-02-26T00:04:42;4.71;65.35
79016;DHT22;72726;44.842;37.556;2024-02-26T00:05:43;4.70;65.53
79016;DHT22;72726;44.842;37.556;2024-02-26T00:06:44;4.73;65.62
79016;DHT22;72726;44.842;37.556;2024-02-26T00:07:46;4.70;65.56
79016;DHT22;72726;44.842;37.556;2024-02-26T00:08:47;4.69;65.42
79016;DHT22;72726;44.842;37.556;2024-02-26T00:09:49;4.63;65.56
79016;DHT22;72726;44.842;37.556;2024-02-26T00:10:50;4.61;65.85
79016;DHT22;72726;44.842;37.556;2024-02-26T00:11:51;4.61;66.11
79016;DHT22;72726;44.842;37.556;2024-02-26T00:12:52;4.59;65.66
79016;DHT22;72726;44.842;37.556;2024-02-26T00:13:53;4.56;65.94
79016;DHT22;72726;44.842;37.556;2024-02-26T00:14:55;4.50;65.85
79016;DHT22;72726;44.842;37.556;2024-02-26T00:16:01;4.52;66.05
79016;DHT22;72726;44.842;37.556;2024-02-26T00:17:02;4.49;66.11
79016;DHT22;72726;44.842;37.556;2024-02-26T00:18:03;4.46;65.98
79016;DHT22;72726;44.842;37.556;2024-02-26T00:19:04;4.49;66.02
79016;DHT22;72726;44.842;37.556;2024-02-26T00:20:06;4.48;65.93
79016;DHT22;72726;44.842;37.556;2024-02-26T00:21:11;4.46;66.00
79016;DHT22;72726;44.842;37.556;2024-02-26T00:22:12;4.42;66.12
79016;DHT22;72726;44.842;37.556;2024-02-26T00:23:16;4.45;66.01
79016;DHT22;72726;44.842;37.556;2024-02-26T00:24:17;4.43;65.98
79016;DHT22;72726;44.842;37.556;2024-02-26T00:25:18;4.45;65.98
79016;DHT22;72726;44.842;37.556;2024-02-26T00:26:19;4.45;66.08
79016;DHT22;72726;44.842;37.556;2024-02-26T00:27:20;4.42;66.23
79016;DHT22;72726;44.842;37.556;2024-02-26T00:28:22;4.39;66.17
79016;DHT22;72726;44.842;37.556;2024-02-26T00:29:23;4.36;66.04
79016;DHT22;72726;44.842;37.556;2024-02-26T00:30:24;4.39;66.01
79016;DHT22;72726;44.842;37.556;2024-02-26T00:31:25;4.38;66.05
79016;DHT22;72726;44.842;37.556;2024-02-26T00:32:26;4.36;66.11
79016;DHT22;72726;44.842;37.556;2024-02-26T00:33:28;4.33;66.48
79016;DHT22;72726;44.842;37.556;2024-02-26T00:34:29;4.32;66.37
79016;DHT22;72726;44.842;37.556;2024-02-26T00:35:30;4.33;66.45
79016;DHT22;72726;44.842;37.556;2024-02-26T00:36:31;4.35;66.22
79016;DHT22;72726;44.842;37.556;2024-02-26T00:37:32;4.36;66.22
79016;DHT22;72726;44.842;37.556;2024-02-26T00:38:33;4.36;66.30
79016;DHT22;72726;44.842;37.556;2024-02-26T00:39:35;4.36;66.36
79016;DHT22;72726;44.842;37.556;2024-02-26T00:40:36;4.32;66.29
79016;DHT22;72726;44.842;37.556;2024-02-26T00:41:40;4.33;66.07
79016;DHT22;72726;44.842;37.556;2024-02-26T00:42:41;4.33;66.43
79016;DHT22;72726;44.842;37.556;2024-02-26T00:43:47;4.31;66.45
79016;DHT22;72726;44.842;37.556;2024-02-26T00:44:48;4.31;66.14
79016;DHT22;72726;44.842;37.556;2024-02-26T00:45:49;4.26;66.23
79016;DHT22;72726;44.842;37.556;2024-02-26T00:46:50;4.26;66.10
79016;DHT22;72726;44.842;37.556;2024-02-26T00:47:51;4.24;66.02
79016;DHT22;72726;44.842;37.556;2024-02-26T00:48:52;4.21;65.94
79016;DHT22;72726;44.842;37.556;2024-02-26T00:49:54;4.18;66.15
79016;DHT22;72726;44.842;37.556;2024-02-26T00:50:55;4.19;65.94
79016;DHT22;72726;44.842;37.556;2024-02-26T00:51:56;4.16;66.07
79016;DHT22;72726;44.842;37.556;2024-02-26T00:52:57;4.16;65.96
79016;DHT22;72726;44.842;37.556;2024-02-26T00:53:58;4.19;65.81
79016;DHT22;72726;44.842;37.556;2024-02-26T00:55:00;4.19;65.67
79016;DHT22;72726;44.842;37.556;2024-02-26T00:56:01;4.21;65.49
79016;DHT22;72726;44.842;37.556;2024-02-26T00:57:02;4.21;65.44
79016;DHT22;72726;44.842;37.556;2024-02-26T00:58:04;4.21;65.36
79016;DHT22;72726;44.842;37.556;2024-02-26T00:59:05;4.22;65.47
79016;DHT22;72726;44.842;37.556;2024-02-26T01:00:07;4.19;65.35
79016;DHT22;72726;44.842;37.556;2024-02-26T01:01:09;4.19;65.31
79016;DHT22;72726;44.842;37.556;2024-02-26T01:02:10;4.18;65.26
79016;DHT22;72726;44.842;37.556;2024-02-26T01:03:11;4.21;65.60
79016;DHT22;72726;44.842;37.556;2024-02-26T01:04:13;4.21;64.98
79016;DHT22;72726;44.842;37.556;2024-02-26T01:05:14;4.18;64.94
79016;DHT22;72726;44.842;37.556;2024-02-26T01:06:17;4.16;64.77
79016;DHT22;72726;44.842;37.556;2024-02-26T01:07:19;4.18;64.78
79016;DHT22;72726;44.842;37.556;2024-02-26T01:08:20;4.15;64.94
79016;DHT22;72726;44.842;37.556;2024-02-26T01:09:21;4.15;64.88
79016;DHT22;72726;44.842;37.556;2024-02-26T01:10:22;4.14;64.80
79016;DHT22;72726;44.842;37.556;2024-02-26T01:11:24;4.15;64.82
79016;DHT22;72726;44.842;37.556;2024-02-26T01:12:25;4.15;64.89
79016;DHT22;72726;44.842;37.556;2024-02-26T01:13:26;4.19;64.82
79016;DHT22;72726;44.842;37.556;2024-02-26T01:14:28;4.22;64.54
79016;DHT22;72726;44.842;37.556;2024-02-26T01:15:29;4.21;64.47
79016;DHT22;72726;44.842;37.556;2024-02-26T01:16:30;4.19;64.37
79016;DHT22;72726;44.842;37.556;2024-02-26T01:17:32;4.18;64.28
79016;DHT22;72726;44.842;37.556;2024-02-26T01:18:33;4.18;64.63
79016;DHT22;72726;44.842;37.556;2024-02-26T01:19:35;4.15;64.54
79016;DHT22;72726;44.842;37.556;2024-02-26T01:20:36;4.14;64.69
79016;DHT22;72726;44.842;37.556;2024-02-26T01:21:37;4.12;64.68
79016;DHT22;72726;44.842;37.556;2024-02-26T01:22:38;4.15;64.77
79016;DHT22;72726;44.842;37.556;2024-02-26T01:23:41;4.14;64.86
79016;DHT22;72726;44.842;37.556;2024-02-26T01:24:43;4.12;64.79
79016;DHT22;72726;44.842;37.556;2024-02-26T01:25:44;4.15;64.70
79016;DHT22;72726;44.842;37.556;2024-02-26T01:26:45;4.16;64.64
79016;DHT22;72726;44.842;37.556;2024-02-26T01:27:46;4.18;64.69
79016;DHT22;72726;44.842;37.556;2024-02-26T01:28:48;4.16;64.78
79016;DHT22;72726;44.842;37.556;2024-02-26T01:29:49;4.19;64.63
79016;DHT22;72726;44.842;37.556;2024-02-26T01:30:50;4.22;64.54
79016;DHT22;72726;44.842;37.556;2024-02-26T01:31:51;4.25;64.56
79016;DHT22;72726;44.842;37.556;2024-02-26T01:32:52;4.25;64.31
79016;DHT22;72726;44.842;37.556;2024-02-26T01:33:53;4.24;64.16
79016;DHT22;72726;44.842;37.556;2024-02-26T01:34:55;4.26;63.99
79016;DHT22;72726;44.842;37.556;2024-02-26T01:35:56;4.28;64.31
79016;DHT22;72726;44.842;37.556;2024-02-26T01:36:57;4.28;64.24
79016;DHT22;72726;44.842;37.556;2024-02-26T01:37:58;4.29;63.94
79016;DHT22;72726;44.842;37.556;2024-02-26T01:38:59;4.29;63.74
79016;DHT22;72726;44.842;37.556;2024-02-26T01:40:01;4.28;63.84
79016;DHT22;72726;44.842;37.556;2024-02-26T01:41:04;4.31;63.44
79016;DHT22;72726;44.842;37.556;2024-02-26T01:42:05;4.29;63.34
79016;DHT22;72726;44.842;37.556;2024-02-26T01:43:07;4.31;63.30
79016;DHT22;72726;44.842;37.556;2024-02-26T01:44:08;4.32;63.25
79016;DHT22;72726;44.842;37.556;2024-02-26T01:45:15;4.31;63.25
79016;DHT22;72726;44.842;37.556;2024-02-26T01:46:17;4.33;63.25
79016;DHT22;72726;44.842;37.556;2024-02-26T01:47:18;4.31;63.33
79016;DHT22;72726;44.842;37.556;2024-02-26T01:48:19;4.32;63.27
79016;DHT22;72726;44.842;37.556;2024-02-26T01:49:21;4.32;63.13
79016;DHT22;72726;44.842;37.556;2024-02-26T01:50:22;4.35;63.22
79016;DHT22;72726;44.842;37.556;2024-02-26T01:51:25;4.31;63.38
79016;DHT22;72726;44.842;37.556;2024-02-26T01:52:26;4.32;63.31
79016;DHT22;72726;44.842;37.556;2024-02-26T01:53:27;4.32;63.31
79016;DHT22;72726;44.842;37.556;2024-02-26T01:54:29;4.32;63.32
79016;DHT22;72726;44.842;37.556;2024-02-26T01:55:31;4.35;63.30
79016;DHT22;72726;44.842;37.556;2024-02-26T01:56:33;4.33;63.23
79016;DHT22;72726;44.842;37.556;2024-02-26T01:57:35;4.39;63.31
79016;DHT22;72726;44.842;37.556;2024-02-26T01:58:36;4.38;63.42
79016;DHT22;72726;44.842;37.556;2024-02-26T01:59:38;4.41;63.35
79016;DHT22;72726;44.842;37.556;2024-02-26T02:00:40;4.42;63.24
79016;DHT22;72726;44.842;37.556;2024-02-26T02:01:44;4.43;63.40
79016;DHT22;72726;44.842;37.556;2024-02-26T02:02:46;4.45;63.39
79016;DHT22;72726;44.842;37.556;2024-02-26T02:03:49;4.46;63.31
79016;DHT22;72726;44.842;37.556;2024-02-26T02:04:50;4.43;63.31
79016;DHT22;72726;44.842;37.556;2024-02-26T02:05:52;4.43;63.54
79016;DHT22;72726;44.842;37.556;2024-02-26T02:06:53;4.36;63.47
79016;DHT22;72726;44.842;37.556;2024-02-26T02:07:55;4.35;63.66
79016;DHT22;72726;44.842;37.556;2024-02-26T02:08:56;4.32;63.72
79016;DHT22;72726;44.842;37.556;2024-02-26T02:09:58;4.33;63.98
79016;DHT22;72726;44.842;37.556;2024-02-26T02:11:00;4.29;64.06
79016;DHT22;72726;44.842;37.556;2024-02-26T02:12:01;4.29;63.92
79016;DHT22;72726;44.842;37.556;2024-02-26T02:13:02;4.29;64.03
79016;DHT22;72726;44.842;37.556;2024-02-26T02:14:04;4.29;64.00
79016;DHT22;72726;44.842;37.556;2024-02-26T02:15:06;4.28;64.03
79016;DHT22;72726;44.842;37.556;2024-02-26T02:16:07;4.26;64.15
79016;DHT22;72726;44.842;37.556;2024-02-26T02:17:09;4.26;64.25
79016;DHT22;72726;44.842;37.556;2024-02-26T02:18:10;4.24;64.37
79016;DHT22;72726;44.842;37.556;2024-02-26T02:19:12;4.21;64.51
79016;DHT22;72726;44.842;37.556;2024-02-26T02:20:17;4.19;64.53
79016;DHT22;72726;44.842;37.556;2024-02-26T02:21:18;4.18;64.63
79016;DHT22;72726;44.842;37.556;2024-02-26T02:22:19;4.18;64.71
79016;DHT22;72726;44.842;37.556;2024-02-26T02:23:21;4.12;64.58
79016;DHT22;72726;44.842;37.556;2024-02-26T02:24:22;4.14;64.55
79016;DHT22;72726;44.842;37.556;2024-02-26T02:25:23;4.14;64.59
79016;DHT22;72726;44.842;37.556;2024-02-26T02:26:24;4.11;64.63
79016;DHT22;72726;44.842;37.556;2024-02-26T02:27:26;4.14;64.56
79016;DHT22;72726;44.842;37.556;2024-02-26T02:28:28;4.15;64.61
79016;DHT22;72726;44.842;37.556;2024-02-26T02:29:29;4.18;64.64
79016;DHT22;72726;44.842;37.556;2024-02-26T02:30:31;4.18;64.66
79016;DHT22;72726;44.842;37.556;2024-02-26T02:31:34;4.16;64.62
79016;DHT22;72726;44.842;37.556;2024-02-26T02:32:37;4.14;64.85
79016;DHT22;72726;44.842;37.556;2024-02-26T02:33:40;4.12;64.91
79016;DHT22;72726;44.842;37.556;2024-02-26T02:34:41;4.11;65.04
79016;DHT22;72726;44.842;37.556;2024-02-26T02:35:43;4.08;64.82
79016;DHT22;72726;44.842;37.556;2024-02-26T02:36:54;4.07;64.93
79016;DHT22;72726;44.842;37.556;2024-02-26T02:37:57;4.07;65.11
79016;DHT22;72726;44.842;37.556;2024-02-26T02:38:58;4.04;65.19
79016;DHT22;72726;44.842;37.556;2024-02-26T02:39:59;4.01;65.08
79016;DHT22;72726;44.842;37.556;2024-02-26T02:41:00;3.98;65.23
79016;DHT22;72726;44.842;37.556;2024-02-26T02:42:02;3.98;65.36
79016;DHT22;72726;44.842;37.556;2024-02-26T02:43:03;3.98;65.07
79016;DHT22;72726;44.842;37.556;2024-02-26T02:44:05;4.01;65.07
79016;DHT22;72726;44.842;37.556;2024-02-26T02:45:06;3.99;64.95
79016;DHT22;72726;44.842;37.556;2024-02-26T02:46:08;3.98;64.93
79016;DHT22;72726;44.842;37.556;2024-02-26T02:47:09;3.98;64.90
79016;DHT22;72726;44.842;37.556;2024-02-26T02:48:11;3.97;64.95
79016;DHT22;72726;44.842;37.556;2024-02-26T02:49:12;3.97;64.95
79016;DHT22;72726;44.842;37.556;2024-02-26T02:50:13;3.97;64.98
79016;DHT22;72726;44.842;37.556;2024-02-26T02:51:15;3.97;64.96
79016;DHT22;72726;44.842;37.556;2024-02-26T02:52:16;3.95;64.82
79016;DHT22;72726;44.842;37.556;2024-02-26T02:53:17;3.95;64.89
79016;DHT22;72726;44.842;37.556;2024-02-26T02:54:19;3.94;64.96
79016;DHT22;72726;44.842;37.556;2024-02-26T02:55:20;3.93;65.02
79016;DHT22;72726;44.842;37.556;2024-02-26T02:56:21;3.93;65.06
79016;DHT22;72726;44.842;37.556;2024-02-26T02:57:22;3.90;65.10
79016;DHT22;72726;44.842;37.556;2024-02-26T02:58:24;3.90;65.01
79016;DHT22;72726;44.842;37.556;2024-02-26T02:59:25;3.86;64.98
79016;DHT22;72726;44.842;37.556;2024-02-26T03:00:26;3.87;65.08
79016;DHT22;72726;44.842;37.556;2024-02-26T03:01:27;3.86;64.95
79016;DHT22;72726;44.842;37.556;2024-02-26T03:02:28;3.83;65.04
79016;DHT22;72726;44.842;37.556;2024-02-26T03:03:30;3.80;64.97
79016;DHT22;72726;44.842;37.556;2024-02-26T03:04:32;3.77;64.99
79016;DHT22;72726;44.842;37.556;2024-02-26T03:05:33;3.71;65.22
79016;DHT22;72726;44.842;37.556;2024-02-26T03:06:34;3.69;65.35
79016;DHT22;72726;44.842;37.556;2024-02-26T03:07:35;3.67;65.39
79016;DHT22;72726;44.842;37.556;2024-02-26T03:08:36;3.66;65.55
79016;DHT22;72726;44.842;37.556;2024-02-26T03:09:38;3.64;65.62
79016;DHT22;72726;44.842;37.556;2024-02-26T03:10:40;3.64;65.61
79016;DHT22;72726;44.842;37.556;2024-02-26T03:11:41;3.66;65.61
79016;DHT22;72726;44.842;37.556;2024-02-26T03:12:42;3.66;65.57
79016;DHT22;72726;44.842;37.556;2024-02-26T03:13:43;3.66;65.57
79016;DHT22;72726;44.842;37.556;2024-02-26T03:14:44;3.64;65.73
79016;DHT22;72726;44.842;37.556;2024-02-26T03:15:46;3.64;65.77
79016;DHT22;72726;44.842;37.556;2024-02-26T03:16:47;3.63;65.82
79016;DHT22;72726;44.842;37.556;2024-02-26T03:17:48;3.66;65.65
79016;DHT22;72726;44.842;37.556;2024-02-26T03:18:49;3.67;65.76
79016;DHT22;72726;44.842;37.556;2024-02-26T03:19:50;3.67;65.63
79016;DHT22;72726;44.842;37.556;2024-02-26T03:20:54;3.71;65.85
79016;DHT22;72726;44.842;37.556;2024-02-26T03:21:55;3.70;65.83
79016;DHT22;72726;44.842;37.556;2024-02-26T03:22:56;3.71;65.70
79016;DHT22;72726;44.842;37.556;2024-02-26T03:23:57;3.76;65.40
79016;DHT22;72726;44.842;37.556;2024-02-26T03:24:59;3.78;65.33
79016;DHT22;72726;44.842;37.556;2024-02-26T03:26:00;3.84;65.20
79016;DHT22;72726;44.842;37.556;2024-02-26T03:27:01;3.83;65.15
79016;DHT22;72726;44.842;37.556;2024-02-26T03:28:03;3.81;65.16
79016;DHT22;72726;44.842;37.556;2024-02-26T03:29:04;3.81;65.17
79016;DHT22;72726;44.842;37.556;2024-02-26T03:30:06;3.83;65.14
79016;DHT22;72726;44.842;37.556;2024-02-26T03:31:07;3.84;65.05
79016;DHT22;72726;44.842;37.556;2024-02-26T03:32:08;3.86;65.03
79016;DHT22;72726;44.842;37.556;2024-02-26T03:33:10;3.83;65.03
79016;DHT22;72726;44.842;37.556;2024-02-26T03:34:11;3.83;64.95
79016;DHT22;72726;44.842;37.556;2024-02-26T03:35:13;3.83;65.07
79016;DHT22;72726;44.842;37.556;2024-02-26T03:36:14;3.81;65.08
79016;DHT22;72726;44.842;37.556;2024-02-26T03:37:15;3.81;64.95
79016;DHT22;72726;44.842;37.556;2024-02-26T03:38:17;3.81;64.93
79016;DHT22;72726;44.842;37.556;2024-02-26T03:39:18;3.83;64.95
79016;DHT22;72726;44.842;37.556;2024-02-26T03:40:20;3.81;65.01
79016;DHT22;72726;44.842;37.556;2024-02-26T03:41:21;3.81;65.04
79016;DHT22;72726;44.842;37.556;2024-02-26T03:42:22;3.78;64.96
79016;DHT22;72726;44.842;37.556;2024-02-26T03:43:23;3.83;64.93
79016;DHT22;72726;44.842;37.556;2024-02-26T03:44:24;3.77;64.85
79016;DHT22;72726;44.842;37.556;2024-02-26T03:45:26;3.78;64.77
79016;DHT22;72726;44.842;37.556;2024-02-26T03:46:27;3.77;64.83
79016;DHT22;72726;44.842;37.556;2024-02-26T03:47:29;3.78;64.75
79016;DHT22;72726;44.842;37.556;2024-02-26T03:48:30;3.77;64.71
79016;DHT22;72726;44.842;37.556;2024-02-26T03:49:31;3.74;64.73
79016;DHT22;72726;44.842;37.556;2024-02-26T03:50:32;3.77;64.72
79016;DHT22;72726;44.842;37.556;2024-02-26T03:51:34;3.74;64.69
79016;DHT22;72726;44.842;37.556;2024-02-26T03:52:35;3.74;64.74
79016;DHT22;72726;44.842;37.556;2024-02-26T03:53:36;3.74;64.73
79016;DHT22;72726;44.842;37.556;2024-02-26T03:54:37;3.67;64.81
79016;DHT22;72726;44.842;37.556;2024-02-26T03:55:39;3.70;64.79
79016;DHT22;72726;44.842;37.556;2024-02-26T03:56:42;3.70;64.85
79016;DHT22;72726;44.842;37.556;2024-02-26T03:57:43;3.66;64.93
79016;DHT22;72726;44.842;37.556;2024-02-26T03:58:44;3.67;64.91
79016;DHT22;72726;44.842;37.556;2024-02-26T03:59:45;3.67;65.04
79016;DHT22;72726;44.842;37.556;2024-02-26T04:00:47;3.66;65.03
79016;DHT22;72726;44.842;37.556;2024-02-26T04:01:51;3.63;65.03
79016;DHT22;72726;44.842;37.556;2024-02-26T04:02:52;3.60;65.04
79016;DHT22;72726;44.842;37.556;2024-02-26T04:03:54;3.62;65.09
79016;DHT22;72726;44.842;37.556;2024-02-26T04:04:55;3.59;65.14
79016;DHT22;72726;44.842;37.556;2024-02-26T04:05:57;3.55;65.21
79016;DHT22;72726;44.842;37.556;2024-02-26T04:06:58;3.56;65.20
79016;DHT22;72726;44.842;37.556;2024-02-26T04:07:59;3.53;65.17
79016;DHT22;72726;44.842;37.556;2024-02-26T04:09:00;3.55;65.13
79016;DHT22;72726;44.842;37.556;2024-02-26T04:10:11;3.52;65.21
79016;DHT22;72726;44.842;37.556;2024-02-26T04:11:13;3.46;65.27
79016;DHT22;72726;44.842;37.556;2024-02-26T04:12:18;3.46;65.34
79016;DHT22;72726;44.842;37.556;2024-02-26T04:13:19;3.44;65.42
79016;DHT22;72726;44.842;37.556;2024-02-26T04:14:20;3.42;65.48
79016;DHT22;72726;44.842;37.556;2024-02-26T04:15:21;3.42;65.66
79016;DHT22;72726;44.842;37.556;2024-02-26T04:16:22;3.36;65.78
79016;DHT22;72726;44.842;37.556;2024-02-26T04:17:24;3.38;65.79
79016;DHT22;72726;44.842;37.556;2024-02-26T04:18:25;3.39;65.71
79016;DHT22;72726;44.842;37.556;2024-02-26T04:19:26;3.40;65.57
79016;DHT22;72726;44.842;37.556;2024-02-26T04:20:27;3.40;65.53
79016;DHT22;72726;44.842;37.556;2024-02-26T04:21:28;3.39;65.57
79016;DHT22;72726;44.842;37.556;2024-02-26T04:22:29;3.39;65.52
79016;DHT22;72726;44.842;37.556;2024-02-26T04:23:30;3.40;65.53
79016;DHT22;72726;44.842;37.556;2024-02-26T04:24:32;3.43;65.47
79016;DHT22;72726;44.842;37.556;2024-02-26T04:25:33;3.42;65.43
79016;DHT22;72726;44.842;37.556;2024-02-26T04:26:34;3.44;65.45
79016;DHT22;72726;44.842;37.556;2024-02-26T04:27:35;3.46;65.41
79016;DHT22;72726;44.842;37.556;2024-02-26T04:28:37;3.46;65.37
79016;DHT22;72726;44.842;37.556;2024-02-26T04:29:38;3.49;65.30
79016;DHT22;72726;44.842;37.556;2024-02-26T04:30:39;3.50;65.26
79016;DHT22;72726;44.842;37.556;2024-02-26T04:31:40;3.53;65.27
79016;DHT22;72726;44.842;37.556;2024-02-26T04:32:43;3.55;65.24
79016;DHT22;72726;44.842;37.556;2024-02-26T04:33:44;3.59;65.07
79016;DHT22;72726;44.842;37.556;2024-02-26T04:34:45;3.62;64.97
79016;DHT22;72726;44.842;37.556;2024-02-26T04:35:47;3.63;64.81
79016;DHT22;72726;44.842;37.556;2024-02-26T04:36:48;3.70;64.68
79016;DHT22;72726;44.842;37.556;2024-02-26T04:37:49;3.74;64.52
79016;DHT22;72726;44.842;37.556;2024-02-26T04:38:50;3.74;64.57
79016;DHT22;72726;44.842;37.556;2024-02-26T04:39:52;3.78;64.58
79016;DHT22;72726;44.842;37.556;2024-02-26T04:40:53;3.83;64.42
79016;DHT22;72726;44.842;37.556;2024-02-26T04:41:54;3.86;64.56
79016;DHT22;72726;44.842;37.556;2024-02-26T04:42:55;3.87;64.31
79016;DHT22;72726;44.842;37.556;2024-02-26T04:43:57;3.93;64.11
79016;DHT22;72726;44.842;37.556;2024-02-26T04:44:58;3.97;64.08
79016;DHT22;72726;44.842;37.556;2024-02-26T04:45:59;4.01;64.23
79016;DHT22;72726;44.842;37.556;2024-02-26T04:47:00;3.98;64.25
79016;DHT22;72726;44.842;37.556;2024-02-26T04:48:03;4.04;64.27
79016;DHT22;72726;44.842;37.556;2024-02-26T04:49:04;4.07;64.11
79016;DHT22;72726;44.842;37.556;2024-02-26T04:50:05;4.09;64.15
79016;DHT22;72726;44.842;37.556;2024-02-26T04:51:06;4.12;64.15
79016;DHT22;72726;44.842;37.556;2024-02-26T04:52:08;4.14;64.09
79016;DHT22;72726;44.842;37.556;2024-02-26T04:53:09;4.16;63.91
79016;DHT22;72726;44.842;37.556;2024-02-26T04:54:10;4.21;63.76
79016;DHT22;72726;44.842;37.556;2024-02-26T04:55:11;4.24;63.68
79016;DHT22;72726;44.842;37.556;2024-02-26T04:56:13;4.24;63.89
79016;DHT22;72726;44.842;37.556;2024-02-26T04:57:14;4.25;63.71
79016;DHT22;72726;44.842;37.556;2024-02-26T04:58:15;4.31;63.53
79016;DHT22;72726;44.842;37.556;2024-02-26T04:59:16;4.39;63.26
79016;DHT22;72726;44.842;37.556;2024-02-26T05:00:18;4.42;63.19
79016;DHT22;72726;44.842;37.556;2024-02-26T05:01:19;4.46;63.10
79016;DHT22;72726;44.842;37.556;2024-02-26T05:02:20;4.50;63.00
79016;DHT22;72726;44.842;37.556;2024-02-26T05:03:21;4.56;63.02
79016;DHT22;72726;44.842;37.556;2024-02-26T05:04:22;4.57;63.22
79016;DHT22;72726;44.842;37.556;2024-02-26T05:05:23;4.56;63.15
79016;DHT22;72726;44.842;37.556;2024-02-26T05:06:24;4.59;63.02
79016;DHT22;72726;44.842;37.556;2024-02-26T05:07:25;4.61;63.00
79016;DHT22;72726;44.842;37.556;2024-02-26T05:08:27;4.66;62.94
79016;DHT22;72726;44.842;37.556;2024-02-26T05:09:28;4.70;62.92
79016;DHT22;72726;44.842;37.556;2024-02-26T05:10:29;4.74;62.98
79016;DHT22;72726;44.842;37.556;2024-02-26T05:11:31;4.77;62.75
79016;DHT22;72726;44.842;37.556;2024-02-26T05:12:32;4.83;62.71
79016;DHT22;72726;44.842;37.556;2024-02-26T05:13:36;4.88;62.88
79016;DHT22;72726;44.842;37.556;2024-02-26T05:14:39;4.90;62.80
79016;DHT22;72726;44.842;37.556;2024-02-26T05:15:40;4.94;62.62
79016;DHT22;72726;44.842;37.556;2024-02-26T05:16:41;4.98;62.64
79016;DHT22;72726;44.842;37.556;2024-02-26T05:17:43;5.02;62.49
79016;DHT22;72726;44.842;37.556;2024-02-26T05:18:44;5.07;62.38
79016;DHT22;72726;44.842;37.556;2024-02-26T05:19:45;5.11;62.38
79016;DHT22;72726;44.842;37.556;2024-02-26T05:20:46;5.15;62.25
79016;DHT22;72726;44.842;37.556;2024-02-26T05:21:47;5.22;62.32
79016;DHT22;72726;44.842;37.556;2024-02-26T05:22:50;5.24;62.27
79016;DHT22;72726;44.842;37.556;2024-02-26T05:23:51;5.29;62.15
79016;DHT22;72726;44.842;37.556;2024-02-26T05:24:52;5.36;62.17
79016;DHT22;72726;44.842;37.556;2024-02-26T05:25:54;5.39;62.21
79016;DHT22;72726;44.842;37.556;2024-02-26T05:26:55;5.45;61.92
79016;DHT22;72726;44.842;37.556;2024-02-26T05:27:57;5.45;61.93
79016;DHT22;72726;44.842;37.556;2024-02-26T05:28:58;5.52;61.82
79016;DHT22;72726;44.842;37.556;2024-02-26T05:30:00;5.54;61.74
79016;DHT22;72726;44.842;37.556;2024-02-26T05:31:01;5.57;61.42
79016;DHT22;72726;44.842;37.556;2024-02-26T05:32:05;5.64;61.41
79016;DHT22;72726;44.842;37.556;2024-02-26T05:33:07;5.70;61.45
79016;DHT22;72726;44.842;37.556;2024-02-26T05:34:08;5.74;61.36
79016;DHT22;72726;44.842;37.556;2024-02-26T05:35:09;5.77;61.38
79016;DHT22;72726;44.842;37.556;2024-02-26T05:36:17;5.81;61.10
79016;DHT22;72726;44.842;37.556;2024-02-26T05:37:19;5.87;61.12
79016;DHT22;72726;44.842;37.556;2024-02-26T05:38:20;5.94;60.96
79016;DHT22;72726;44.842;37.556;2024-02-26T05:39:22;5.98;60.86
79016;DHT22;72726;44.842;37.556;2024-02-26T05:40:23;6.01;60.99
79016;DHT22;72726;44.842;37.556;2024-02-26T05:41:24;6.07;60.60
79016;DHT22;72726;44.842;37.556;2024-02-26T05:42:27;6.09;60.35
79016;DHT22;72726;44.842;37.556;2024-02-26T05:43:28;6.15;60.13
79016;DHT22;72726;44.842;37.556;2024-02-26T05:44:30;6.24;60.21
79016;DHT22;72726;44.842;37.556;2024-02-26T05:45:31;6.28;59.96
79016;DHT22;72726;44.842;37.556;2024-02-26T05:46:32;6.35;59.30
79016;DHT22;72726;44.842;37.556;2024-02-26T05:47:34;6.42;59.17
79016;DHT22;72726;44.842;37.556;2024-02-26T05:48:35;6.49;58.97
79016;DHT22;72726;44.842;37.556;2024-02-26T05:49:37;6.52;58.65
79016;DHT22;72726;44.842;37.556;2024-02-26T05:50:38;6.54;58.27
79016;DHT22;72726;44.842;37.556;2024-02-26T05:51:39;6.64;58.15
79016;DHT22;72726;44.842;37.556;2024-02-26T05:52:40;6.69;57.89
79016;DHT22;72726;44.842;37.556;2024-02-26T05:53:41;6.73;57.55
79016;DHT22;72726;44.842;37.556;2024-02-26T05:54:43;6.80;57.97
79016;DHT22;72726;44.842;37.556;2024-02-26T05:55:44;6.84;57.23
79016;DHT22;72726;44.842;37.556;2024-02-26T05:56:45;6.91;56.50
79016;DHT22;72726;44.842;37.556;2024-02-26T05:57:46;7.01;56.72
79016;DHT22;72726;44.842;37.556;2024-02-26T05:58:47;7.05;56.99
79016;DHT22;72726;44.842;37.556;2024-02-26T05:59:48;7.05;57.02
79016;DHT22;72726;44.842;37.556;2024-02-26T06:00:50;7.12;56.21
79016;DHT22;72726;44.842;37.556;2024-02-26T06:01:51;7.19;56.06
79016;DHT22;72726;44.842;37.556;2024-02-26T06:02:52;7.23;56.21
79016;DHT22;72726;44.842;37.556;2024-02-26T06:03:53;7.30;55.61
79016;DHT22;72726;44.842;37.556;2024-02-26T06:04:54;7.32;55.09
79016;DHT22;72726;44.842;37.556;2024-02-26T06:05:55;7.36;55.06
79016;DHT22;72726;44.842;37.556;2024-02-26T06:06:56;7.35;55.20
79016;DHT22;72726;44.842;37.556;2024-02-26T06:07:58;7.37;55.46
79016;DHT22;72726;44.842;37.556;2024-02-26T06:08:59;7.40;55.47
79016;DHT22;72726;44.842;37.556;2024-02-26T06:10:02;7.43;55.80
79016;DHT22;72726;44.842;37.556;2024-02-26T06:11:07;7.46;55.27
79016;DHT22;72726;44.842;37.556;2024-02-26T06:12:08;7.46;55.20
79016;DHT22;72726;44.842;37.556;2024-02-26T06:13:09;7.52;55.01
79016;DHT22;72726;44.842;37.556;2024-02-26T06:14:11;7.53;55.06
79016;DHT22;72726;44.842;37.556;2024-02-26T06:15:13;7.57;54.78
79016;DHT22;72726;44.842;37.556;2024-02-26T06:16:15;7.59;54.37
79016;DHT22;72726;44.842;37.556;2024-02-26T06:17:16;7.63;54.56
79016;DHT22;72726;44.842;37.556;2024-02-26T06:18:17;7.66;54.12
79016;DHT22;72726;44.842;37.556;2024-02-26T06:19:18;7.73;53.89
79016;DHT22;72726;44.842;37.556;2024-02-26T06:20:19;7.74;53.64
79016;DHT22;72726;44.842;37.556;2024-02-26T06:21:21;7.75;53.55
79016;DHT22;72726;44.842;37.556;2024-02-26T06:22:22;7.81;54.07
79016;DHT22;72726;44.842;37.556;2024-02-26T06:23:24;7.85;53.84
79016;DHT22;72726;44.842;37.556;2024-02-26T06:24:25;7.90;53.23
79016;DHT22;72726;44.842;37.556;2024-02-26T06:25:26;7.95;52.90
79016;DHT22;72726;44.842;37.556;2024-02-26T06:26:27;8.02;52.05
79016;DHT22;72726;44.842;37.556;2024-02-26T06:27:31;8.08;52.07
79016;DHT22;72726;44.842;37.556;2024-02-26T06:28:32;8.09;52.63